Time;durP1;ratioP1;P1;durP2;ratioP2;P2;SDS_P1;SDS_P2;PMS_P1;PMS_P2;Temp;Humidity;BMP_temperature;BMP_pressure;BME280_temperature;BME280_humidity;BME280_pressure;Samples;Min_cycle;Max_cycle;Signal;HPM_P1;HPM_P2
2022/10/05 03:09:18;;;;;;;6.63;2.93;;;;;;;;;;6050015;23;20187;-92
2022/10/05 03:12:31;;;;;;;7.57;3.20;;;;;;;;;;6032498;23;20207;-89
2022/10/05 03:15:43;;;;;;;5.43;2.90;;;;;;;;;;6032554;23;20512;-89
2022/10/05 03:18:54;;;;;;;8.43;3.27;;;;;;;;;;6031135;23;20244;-90
2022/10/05 03:22:02;;;;;;;20.63;4.00;;;;;;;;;;6048045;23;20568;-90
2022/10/05 03:25:29;;;;;;;11.87;4.00;;;;;;;;;;6048854;23;20198;-88
2022/10/05 03:28:40;;;;;;;16.10;4.07;;;;;;;;;;6030006;23;20297;-90
2022/10/05 03:31:48;;;;;;;9.57;4.15;;;;;;;;;;6048865;23;20175;-90
2022/10/05 03:34:57;;;;;;;6.80;3.88;;;;;;;;;;6047935;23;20166;-89
2022/10/05 03:38:07;;;;;;;8.40;4.60;;;;;;;;;;6049982;23;20175;-91
2022/10/05 03:41:16;;;;;;;13.32;3.53;;;;;;;;;;6048659;23;20228;-92
2022/10/05 03:44:31;;;;;;;30.47;6.10;;;;;;;;;;6049514;23;20199;-93
2022/10/05 03:47:41;;;;;;;29.13;4.80;;;;;;;;;;6049022;23;20296;-90
2022/10/05 03:50:52;;;;;;;16.58;3.67;;;;;;;;;;6048830;23;20179;-91
2022/10/05 03:54:00;;;;;;;42.73;4.27;;;;;;;;;;6048901;23;20167;-91
2022/10/05 03:57:08;;;;;;;52.93;4.40;;;;;;;;;;6047827;23;20220;-91
2022/10/05 04:00:16;;;;;;;20.83;4.70;;;;;;;;;;6049380;23;20502;-91
2022/10/05 04:03:30;;;;;;;17.83;4.03;;;;;;;;;;6048230;23;20175;-90
2022/10/05 04:06:36;;;;;;;44.67;4.97;;;;;;;;;;6033444;23;20206;-90
2022/10/05 04:09:43;;;;;;;22.93;4.17;;;;;;;;;;6048847;23;20184;-90
2022/10/05 04:12:52;;;;;;;31.13;4.70;;;;;;;;;;6031028;23;20211;-90
2022/10/05 04:16:02;;;;;;;19.58;5.25;;;;;;;;;;6049771;23;20666;-90
2022/10/05 04:19:13;;;;;;;22.50;5.13;;;;;;;;;;6048046;23;20167;-90
2022/10/05 04:22:22;;;;;;;13.80;5.03;;;;;;;;;;6049374;23;20506;-90
2022/10/05 04:25:30;;;;;;;16.52;4.75;;;;;;;;;;6049007;23;20203;-90
2022/10/05 04:28:40;;;;;;;65.73;5.37;;;;;;;;;;6047502;23;20318;-90
2022/10/05 04:31:53;;;;;;;11.55;4.25;;;;;;;;;;6048498;23;20163;-90
2022/10/05 04:35:08;;;;;;;14.20;4.25;;;;;;;;;;6049109;23;20204;-90
2022/10/05 04:38:24;;;;;;;11.23;4.50;;;;;;;;;;6050424;23;20184;-90
2022/10/05 04:41:34;;;;;;;32.60;4.90;;;;;;;;;;6049499;23;20184;-90
2022/10/05 04:44:46;;;;;;;26.07;4.80;;;;;;;;;;6049796;23;20595;-91
2022/10/05 04:48:02;;;;;;;11.77;4.20;;;;;;;;;;6048924;23;20170;-89
2022/10/05 04:51:16;;;;;;;7.23;3.97;;;;;;;;;;6047350;23;20220;-90
2022/10/05 04:54:25;;;;;;;10.53;4.17;;;;;;;;;;6046493;23;20172;-90
2022/10/05 04:57:36;;;;;;;8.50;4.03;;;;;;;;;;6046147;23;20479;-90
2022/10/05 05:00:49;;;;;;;25.07;4.87;;;;;;;;;;6046254;23;20188;-90
2022/10/05 05:04:03;;;;;;;18.53;4.90;;;;;;;;;;6048845;23;20260;-90
2022/10/05 05:07:16;;;;;;;26.73;4.97;;;;;;;;;;6048965;23;20191;-90
2022/10/05 05:10:37;;;;;;;55.73;5.40;;;;;;;;;;6048138;23;20175;-91
2022/10/05 05:14:01;;;;;;;15.07;5.00;;;;;;;;;;6049104;23;20175;-90
2022/10/05 05:20:38;;;;;;;44.80;5.37;;;;;;;;;;6034443;23;20620;-88
2022/10/05 05:23:45;;;;;;;13.17;5.70;;;;;;;;;;6033169;23;20172;-91
2022/10/05 05:27:02;;;;;;;11.13;5.70;;;;;;;;;;6049571;23;20183;-90
2022/10/05 05:30:13;;;;;;;15.40;6.40;;;;;;;;;;6050441;23;20194;-91
2022/10/05 05:33:21;;;;;;;13.70;5.37;;;;;;;;;;6050841;23;20171;-90
2022/10/05 05:36:46;;;;;;;9.53;5.13;;;;;;;;;;6053069;23;20179;-92
2022/10/05 05:39:57;;;;;;;11.30;5.77;;;;;;;;;;6050003;23;20284;-91
2022/10/05 05:43:03;;;;;;;12.07;5.10;;;;;;;;;;6051988;23;20163;-89
2022/10/05 05:46:13;;;;;;;16.33;5.87;;;;;;;;;;6049970;23;20278;-90
2022/10/05 05:49:23;;;;;;;15.87;6.33;;;;;;;;;;6051965;23;20193;-90
2022/10/05 05:52:31;;;;;;;16.17;5.47;;;;;;;;;;6047260;23;20591;-91
2022/10/05 05:55:40;;;;;;;16.20;5.57;;;;;;;;;;6031395;23;20183;-91
2022/10/05 05:58:49;;;;;;;11.52;5.75;;;;;;;;;;6033397;23;20174;-90
2022/10/05 06:01:57;;;;;;;23.60;5.97;;;;;;;;;;6048109;23;20179;-89
2022/10/05 06:05:05;;;;;;;11.77;4.95;;;;;;;;;;6032767;23;20227;-90
2022/10/05 06:08:16;;;;;;;12.18;5.60;;;;;;;;;;6041291;23;20195;-91
2022/10/05 06:11:28;;;;;;;16.67;5.97;;;;;;;;;;6021217;23;20176;-90
2022/10/05 06:14:36;;;;;;;16.83;7.60;;;;;;;;;;6039211;23;20176;-90
2022/10/05 06:17:44;;;;;;;14.40;5.93;;;;;;;;;;6039854;23;20179;-92
2022/10/05 06:20:52;;;;;;;15.03;6.50;;;;;;;;;;6039343;23;20220;-91
2022/10/05 06:24:00;;;;;;;16.97;5.67;;;;;;;;;;6036469;23;20708;-90
2022/10/05 06:27:20;;;;;;;17.80;6.07;;;;;;;;;;6035051;23;20191;-90
2022/10/05 06:30:32;;;;;;;8.83;5.60;;;;;;;;;;6037720;23;20224;-90
2022/10/05 06:33:46;;;;;;;35.92;7.43;;;;;;;;;;6037260;23;20249;-91
2022/10/05 06:36:56;;;;;;;11.70;5.60;;;;;;;;;;6040460;23;20220;-89
2022/10/05 06:40:09;;;;;;;13.53;5.60;;;;;;;;;;6037930;23;20197;-90
2022/10/05 06:43:26;;;;;;;9.95;5.60;;;;;;;;;;6038478;23;20164;-90
2022/10/05 06:46:55;;;;;;;16.27;5.63;;;;;;;;;;6039195;23;20208;-90
2022/10/05 06:50:28;;;;;;;16.40;6.03;;;;;;;;;;6022317;23;20211;-90
2022/10/05 06:53:48;;;;;;;16.70;5.95;;;;;;;;;;6038780;23;20173;-90
2022/10/05 06:56:56;;;;;;;16.38;5.60;;;;;;;;;;6035417;23;20175;-91
2022/10/05 07:00:04;;;;;;;19.60;6.13;;;;;;;;;;6022560;23;20172;-92
2022/10/05 07:03:18;;;;;;;18.15;6.35;;;;;;;;;;6035732;23;20171;-91
2022/10/05 07:06:26;;;;;;;13.00;6.25;;;;;;;;;;6035997;23;20278;-90
2022/10/05 07:09:40;;;;;;;12.55;5.75;;;;;;;;;;6050255;23;20224;-91
2022/10/05 07:12:54;;;;;;;14.80;6.20;;;;;;;;;;6048955;23;20608;-91
2022/10/05 07:16:02;;;;;;;14.40;6.28;;;;;;;;;;6048924;23;20228;-91
2022/10/05 07:19:13;;;;;;;13.38;6.30;;;;;;;;;;6050538;23;20175;-90
2022/10/05 07:22:24;;;;;;;10.00;6.35;;;;;;;;;;6034387;23;20331;-91
2022/10/05 07:25:32;;;;;;;16.17;7.07;;;;;;;;;;6049889;23;20231;-91
2022/10/05 07:28:41;;;;;;;12.57;5.90;;;;;;;;;;6050780;23;20605;-93
2022/10/05 07:31:50;;;;;;;11.32;6.25;;;;;;;;;;6035991;23;20260;-91
2022/10/05 07:35:01;;;;;;;14.05;6.32;;;;;;;;;;6052885;23;20679;-91
2022/10/05 07:38:11;;;;;;;15.00;6.45;;;;;;;;;;6051281;23;20184;-90
2022/10/05 07:41:19;;;;;;;18.90;6.97;;;;;;;;;;6049769;23;20196;-92
2022/10/05 07:44:27;;;;;;;9.77;5.63;;;;;;;;;;6054289;23;20171;-91
2022/10/05 07:47:36;;;;;;;8.48;4.82;;;;;;;;;;6053919;23;20202;-91
2022/10/05 07:50:44;;;;;;;10.75;5.35;;;;;;;;;;6049349;23;20179;-90
2022/10/05 07:53:57;;;;;;;9.98;5.63;;;;;;;;;;6031491;23;20179;-90
2022/10/05 07:57:08;;;;;;;11.90;5.05;;;;;;;;;;6049060;23;20501;-91
2022/10/05 08:00:14;;;;;;;9.30;5.57;;;;;;;;;;6031339;23;20163;-90
2022/10/05 08:03:28;;;;;;;13.70;5.80;;;;;;;;;;6034850;23;20160;-91
2022/10/05 08:06:39;;;;;;;10.40;5.78;;;;;;;;;;6034379;23;20202;-91
2022/10/05 08:09:48;;;;;;;10.13;5.65;;;;;;;;;;6033078;23;20679;-90
2022/10/05 08:12:57;;;;;;;13.75;5.70;;;;;;;;;;6051541;23;20239;-90
2022/10/05 08:16:05;;;;;;;9.75;5.80;;;;;;;;;;6051099;23;20251;-91
2022/10/05 08:19:17;;;;;;;9.25;5.00;;;;;;;;;;6050475;23;20196;-89
2022/10/05 08:22:25;;;;;;;12.07;5.53;;;;;;;;;;6035734;23;20171;-91
2022/10/05 08:25:35;;;;;;;9.85;4.53;;;;;;;;;;6051102;23;20224;-90
2022/10/05 08:28:49;;;;;;;7.53;4.38;;;;;;;;;;6052157;23;20188;-91
2022/10/05 08:31:56;;;;;;;7.95;3.97;;;;;;;;;;6051400;23;20255;-91
2022/10/05 08:35:04;;;;;;;8.80;4.97;;;;;;;;;;6051570;23;20218;-90
2022/10/05 08:38:15;;;;;;;10.15;4.00;;;;;;;;;;6052418;23;20182;-91
2022/10/05 08:41:45;;;;;;;8.93;4.57;;;;;;;;;;6051889;23;20224;-91
2022/10/05 08:45:02;;;;;;;8.98;4.90;;;;;;;;;;6050609;23;20562;-90
2022/10/05 08:48:15;;;;;;;7.70;4.15;;;;;;;;;;6035612;23;20174;-91
2022/10/05 08:51:38;;;;;;;18.40;8.50;;;;;;;;;;6051631;23;20180;-92
2022/10/05 08:54:49;;;;;;;9.95;4.15;;;;;;;;;;6051977;23;20176;-91
2022/10/05 08:58:07;;;;;;;7.75;4.43;;;;;;;;;;6052366;23;20179;-91
2022/10/05 09:01:18;;;;;;;6.40;3.97;;;;;;;;;;6051506;23;20176;-92
2022/10/05 09:04:30;;;;;;;6.85;3.88;;;;;;;;;;6051392;23;20268;-90
2022/10/05 09:07:46;;;;;;;7.57;4.03;;;;;;;;;;6039354;23;20215;-92
2022/10/05 09:11:04;;;;;;;9.30;3.95;;;;;;;;;;6041085;23;20240;-92
2022/10/05 09:14:30;;;;;;;7.78;4.00;;;;;;;;;;6040296;23;20660;-92
2022/10/05 09:17:48;;;;;;;5.55;3.38;;;;;;;;;;6014050;23;20250;-91
2022/10/05 09:20:54;;;;;;;7.47;3.90;;;;;;;;;;6038951;23;20172;-92
2022/10/05 09:24:21;;;;;;;6.30;3.40;;;;;;;;;;6038856;23;20163;-92
2022/10/05 09:27:35;;;;;;;6.95;3.30;;;;;;;;;;6022385;23;20199;-92
2022/10/05 09:31:02;;;;;;;8.27;3.33;;;;;;;;;;6037864;23;20205;-91
2022/10/05 09:34:22;;;;;;;6.70;3.80;;;;;;;;;;6009310;23;20605;-91
2022/10/05 09:37:45;;;;;;;7.30;3.30;;;;;;;;;;6039313;23;20173;-91
2022/10/05 09:41:10;;;;;;;13.05;3.20;;;;;;;;;;6037855;23;20193;-90
2022/10/05 09:44:32;;;;;;;8.82;3.97;;;;;;;;;;6037979;23;20268;-90
2022/10/05 09:47:47;;;;;;;28.75;4.75;;;;;;;;;;6040360;23;20187;-92
2022/10/05 09:51:05;;;;;;;7.32;3.33;;;;;;;;;;6039334;23;20511;-90
2022/10/05 09:54:43;;;;;;;6.22;3.70;;;;;;;;;;6037839;23;20176;-91
2022/10/05 09:57:56;;;;;;;7.82;3.22;;;;;;;;;;6039132;23;20172;-90
2022/10/05 10:01:12;;;;;;;4.80;2.97;;;;;;;;;;6040804;23;20172;-92
2022/10/05 10:04:23;;;;;;;5.43;2.95;;;;;;;;;;6020069;23;20220;-91
2022/10/05 10:07:39;;;;;;;8.77;3.50;;;;;;;;;;6024787;23;20539;-90
2022/10/05 10:11:02;;;;;;;5.68;2.90;;;;;;;;;;6037840;23;20225;-91
2022/10/05 10:14:21;;;;;;;5.40;2.85;;;;;;;;;;6039443;23;20172;-90
2022/10/05 10:17:43;;;;;;;4.32;2.45;;;;;;;;;;6039285;23;20234;-90
2022/10/05 10:20:57;;;;;;;6.30;2.50;;;;;;;;;;6037191;23;20266;-91
2022/10/05 10:24:08;;;;;;;6.55;3.05;;;;;;;;;;6038888;23;20164;-92
2022/10/05 10:27:26;;;;;;;7.18;2.38;;;;;;;;;;6039239;23;20191;-92
2022/10/05 10:30:41;;;;;;;4.43;2.55;;;;;;;;;;6038678;23;20205;-90
2022/10/05 10:34:09;;;;;;;10.50;2.95;;;;;;;;;;6036866;23;20176;-90
2022/10/05 10:37:32;;;;;;;5.35;2.33;;;;;;;;;;6036902;23;20494;-91
2022/10/05 10:40:39;;;;;;;8.10;2.40;;;;;;;;;;6020560;23;20308;-91
2022/10/05 10:44:01;;;;;;;5.95;2.72;;;;;;;;;;6038484;23;20179;-92
2022/10/05 10:47:23;;;;;;;5.40;2.42;;;;;;;;;;6036502;23;20217;-88
2022/10/05 10:50:42;;;;;;;6.80;2.50;;;;;;;;;;6038100;23;20184;-92
2022/10/05 10:54:19;;;;;;;3.63;2.22;;;;;;;;;;6037849;23;20176;-92
2022/10/05 10:57:33;;;;;;;7.25;2.45;;;;;;;;;;6038258;23;20172;-90
2022/10/05 11:00:49;;;;;;;6.30;2.40;;;;;;;;;;6039072;23;20176;-91
2022/10/05 11:04:09;;;;;;;5.88;2.90;;;;;;;;;;6038096;23;20317;-92
2022/10/05 11:07:45;;;;;;;5.68;2.80;;;;;;;;;;6052148;23;20224;-91
2022/10/05 11:11:14;;;;;;;5.45;2.80;;;;;;;;;;5966189;23;20181;-91
2022/10/05 11:14:37;;;;;;;12.10;3.55;;;;;;;;;;6051899;23;20231;-91
2022/10/05 11:17:58;;;;;;;8.85;4.28;;;;;;;;;;6052829;23;20175;-91
2022/10/05 11:21:19;;;;;;;5.10;2.17;;;;;;;;;;6050716;23;20163;-90
2022/10/05 11:24:53;;;;;;;10.50;2.92;;;;;;;;;;6052281;23;20247;-90
2022/10/05 11:28:17;;;;;;;7.78;2.20;;;;;;;;;;6022175;23;20548;-90
2022/10/05 11:31:41;;;;;;;6.28;2.28;;;;;;;;;;6050318;23;20171;-89
2022/10/05 11:34:59;;;;;;;7.97;3.08;;;;;;;;;;6049325;23;20158;-91
2022/10/05 11:38:13;;;;;;;7.55;2.85;;;;;;;;;;6035625;23;20228;-90
2022/10/05 11:45:44;;;;;;;3.90;2.17;;;;;;;;;;6053764;23;20159;-92
2022/10/05 11:48:59;;;;;;;4.68;2.30;;;;;;;;;;6035501;23;20234;-91
2022/10/05 11:52:16;;;;;;;8.13;2.67;;;;;;;;;;6051947;23;20183;-90
2022/10/05 11:55:28;;;;;;;12.35;2.35;;;;;;;;;;6050969;23;20244;-92
2022/10/05 11:58:37;;;;;;;6.65;2.28;;;;;;;;;;6052729;23;20178;-93
2022/10/05 12:01:49;;;;;;;6.65;2.45;;;;;;;;;;6053296;23;20247;-93
2022/10/05 12:04:56;;;;;;;7.80;2.20;;;;;;;;;;6053627;23;20219;-93
2022/10/05 12:08:10;;;;;;;4.57;2.25;;;;;;;;;;6040083;23;20232;-90
2022/10/05 12:11:28;;;;;;;6.03;2.30;;;;;;;;;;6039988;23;20176;-89
2022/10/05 12:14:43;;;;;;;5.43;2.35;;;;;;;;;;6039985;23;20179;-91
2022/10/05 12:17:51;;;;;;;6.20;2.30;;;;;;;;;;6041688;23;20179;-89
2022/10/05 12:21:01;;;;;;;7.97;2.10;;;;;;;;;;6021439;23;20194;-89
2022/10/05 12:24:12;;;;;;;4.28;2.28;;;;;;;;;;6039078;23;20201;-90
2022/10/05 12:27:19;;;;;;;4.88;2.20;;;;;;;;;;6043934;23;20255;-92
2022/10/05 12:30:30;;;;;;;7.07;2.25;;;;;;;;;;6039599;23;20312;-90
2022/10/05 12:33:41;;;;;;;5.80;2.50;;;;;;;;;;6039140;23;20193;-91
2022/10/05 12:36:50;;;;;;;5.68;2.47;;;;;;;;;;6040984;23;20213;-90
2022/10/05 12:39:58;;;;;;;8.73;2.83;;;;;;;;;;6042798;23;20169;-91
2022/10/05 12:43:04;;;;;;;7.93;3.10;;;;;;;;;;6038447;23;20172;-92
2022/10/05 12:46:16;;;;;;;5.20;2.38;;;;;;;;;;6036548;23;20176;-91
2022/10/05 12:49:39;;;;;;;4.03;2.08;;;;;;;;;;6036785;23;20252;-90
2022/10/05 12:52:49;;;;;;;7.93;2.60;;;;;;;;;;6038178;23;20181;-92
2022/10/05 12:56:01;;;;;;;10.93;3.28;;;;;;;;;;6037514;23;20258;-92
2022/10/05 12:59:13;;;;;;;5.93;2.47;;;;;;;;;;6036895;23;20614;-89
2022/10/05 13:02:23;;;;;;;4.00;2.10;;;;;;;;;;6038484;23;20168;-90
2022/10/05 13:05:32;;;;;;;5.32;2.63;;;;;;;;;;6043043;23;20230;-90
2022/10/05 13:08:46;;;;;;;6.30;2.63;;;;;;;;;;6040648;23;20225;-90
2022/10/05 13:11:56;;;;;;;4.35;2.38;;;;;;;;;;6041103;23;20160;-93
2022/10/05 13:15:06;;;;;;;7.05;3.47;;;;;;;;;;6039982;23;20233;-89
2022/10/05 13:18:17;;;;;;;7.20;2.88;;;;;;;;;;6038902;23;20623;-89
2022/10/05 13:21:24;;;;;;;6.38;2.60;;;;;;;;;;6040460;23;20193;-89
2022/10/05 13:24:31;;;;;;;14.10;4.22;;;;;;;;;;6039564;23;20244;-92
2022/10/05 13:27:43;;;;;;;6.10;2.40;;;;;;;;;;6040117;23;20229;-90
2022/10/05 13:30:56;;;;;;;18.80;2.80;;;;;;;;;;6042247;23;20167;-91
2022/10/05 13:34:11;;;;;;;10.02;3.40;;;;;;;;;;6041343;23;20176;-90
2022/10/05 15:49:22;;;;;;;17.08;4.80;;;;;;;;;;6104796;23;20210;-89
2022/10/05 15:52:30;;;;;;;19.42;5.18;;;;;;;;;;6120544;23;20221;-90
2022/10/05 15:55:42;;;;;;;20.33;4.57;;;;;;;;;;6123440;23;20170;-92
2022/10/05 15:58:56;;;;;;;10.05;3.97;;;;;;;;;;6122702;23;20231;-89
2022/10/05 16:02:17;;;;;;;13.27;4.00;;;;;;;;;;6121000;23;20205;-91
2022/10/05 16:09:06;;;;;;;11.25;4.28;;;;;;;;;;6123511;23;20481;-90
2022/10/05 16:12:17;;;;;;;18.17;5.25;;;;;;;;;;6122916;23;20169;-91
2022/10/05 16:15:27;;;;;;;15.13;5.28;;;;;;;;;;6122955;23;20173;-93
2022/10/05 16:18:40;;;;;;;10.10;4.70;;;;;;;;;;6126355;23;20173;-91
2022/10/05 16:21:50;;;;;;;25.25;5.15;;;;;;;;;;6125303;23;20219;-91
2022/10/05 16:25:09;;;;;;;10.52;4.50;;;;;;;;;;6123067;23;20218;-92
2022/10/05 16:28:27;;;;;;;16.27;4.45;;;;;;;;;;6120995;23;20688;-90
2022/10/05 16:31:38;;;;;;;15.27;5.63;;;;;;;;;;6124325;23;20165;-89
2022/10/05 16:34:49;;;;;;;14.32;5.30;;;;;;;;;;6126440;23;20177;-91
2022/10/05 16:37:59;;;;;;;9.65;3.92;;;;;;;;;;6125702;23;20256;-92
2022/10/05 16:41:09;;;;;;;11.90;4.00;;;;;;;;;;6123887;23;20500;-92
2022/10/05 16:44:18;;;;;;;13.38;5.05;;;;;;;;;;6125325;23;20176;-91
2022/10/05 16:47:34;;;;;;;15.90;6.72;;;;;;;;;;6123012;23;20738;-92
2022/10/05 16:50:45;;;;;;;16.58;8.50;;;;;;;;;;6122311;23;20237;-92
2022/10/05 16:54:03;;;;;;;34.38;13.88;;;;;;;;;;6123726;23;20169;-91
2022/10/05 16:57:20;;;;;;;25.45;9.52;;;;;;;;;;6122981;23;20165;-90
2022/10/05 17:00:45;;;;;;;16.85;8.00;;;;;;;;;;6121660;23;20228;-92
2022/10/05 17:03:58;;;;;;;13.00;6.80;;;;;;;;;;6124114;23;20178;-91
2022/10/05 17:07:21;;;;;;;18.88;6.80;;;;;;;;;;6123981;23;20331;-92
2022/10/05 17:10:45;;;;;;;14.70;7.35;;;;;;;;;;6120600;23;20173;-89
2022/10/05 17:14:07;;;;;;;22.27;7.15;;;;;;;;;;6126242;23;20329;-90
2022/10/05 17:17:23;;;;;;;19.58;7.20;;;;;;;;;;6124834;23;20566;-90
2022/10/05 17:20:55;;;;;;;12.32;5.80;;;;;;;;;;6123225;23;20177;-91
2022/10/05 17:24:04;;;;;;;16.38;5.90;;;;;;;;;;6094160;23;20192;-92
2022/10/05 17:27:22;;;;;;;10.45;5.28;;;;;;;;;;6120530;23;20165;-89
2022/10/05 17:30:49;;;;;;;15.77;5.38;;;;;;;;;;6120581;23;20170;-91
2022/10/05 17:34:26;;;;;;;15.68;6.85;;;;;;;;;;6121590;23;20161;-91
2022/10/05 17:37:35;;;;;;;15.30;6.20;;;;;;;;;;6127789;23;20181;-92
2022/10/05 17:40:41;;;;;;;18.52;5.30;;;;;;;;;;6123260;23;20213;-91
2022/10/05 17:44:05;;;;;;;17.80;5.97;;;;;;;;;;6124751;23;20173;-92
2022/10/05 17:47:14;;;;;;;21.40;5.90;;;;;;;;;;6123407;23;20290;-90
2022/10/05 17:57:42;;;;;;;12.75;5.43;;;;;;;;;;6127061;23;20193;-92
2022/10/05 18:01:05;;;;;;;10.55;4.93;;;;;;;;;;6125816;23;20165;-90
2022/10/05 18:04:29;;;;;;;12.68;5.22;;;;;;;;;;6124605;23;20173;-93
2022/10/05 18:07:35;;;;;;;11.75;5.50;;;;;;;;;;6122242;23;20172;-91
2022/10/05 18:11:02;;;;;;;15.25;6.10;;;;;;;;;;6124469;23;20165;-91
2022/10/05 18:14:17;;;;;;;11.85;5.47;;;;;;;;;;6125569;23;20173;-90
2022/10/05 18:18:30;;;;;;;14.23;5.65;;;;;;;;;;6124313;23;20165;-92
2022/10/05 18:21:43;;;;;;;14.88;5.53;;;;;;;;;;6124608;23;20170;-91
2022/10/05 18:25:22;;;;;;;13.43;6.05;;;;;;;;;;6144412;23;20239;-91
2022/10/05 18:28:49;;;;;;;13.48;6.20;;;;;;;;;;6142187;23;20193;-91
2022/10/05 18:35:24;;;;;;;23.60;10.43;;;;;;;;;;6122210;23;20180;-91
2022/10/05 18:38:50;;;;;;;20.42;7.55;;;;;;;;;;6123687;23;20173;-90
2022/10/05 18:42:00;;;;;;;47.28;21.77;;;;;;;;;;6121637;23;20241;-91
2022/10/05 18:45:12;;;;;;;18.98;8.48;;;;;;;;;;6120564;23;20249;-91
2022/10/05 18:48:21;;;;;;;19.95;9.90;;;;;;;;;;6123531;23;20201;-91
2022/10/05 18:51:31;;;;;;;14.95;6.88;;;;;;;;;;6121720;23;20169;-88
2022/10/05 18:54:44;;;;;;;20.00;8.32;;;;;;;;;;6121321;23;20170;-91
2022/10/05 18:58:12;;;;;;;16.40;6.85;;;;;;;;;;6121202;23;20188;-88
2022/10/05 19:01:29;;;;;;;19.05;8.15;;;;;;;;;;6121385;23;20173;-90
2022/10/05 19:04:40;;;;;;;19.73;7.50;;;;;;;;;;6121943;23;20278;-91
2022/10/05 19:07:50;;;;;;;21.00;8.25;;;;;;;;;;6122122;23;20165;-93
2022/10/05 19:10:58;;;;;;;16.02;7.18;;;;;;;;;;6123491;23;20173;-91
2022/10/05 19:14:12;;;;;;;19.83;7.82;;;;;;;;;;6121937;23;20160;-90
2022/10/05 19:17:24;;;;;;;47.10;25.15;;;;;;;;;;6123131;23;20209;-90
2022/10/05 19:20:34;;;;;;;17.35;7.32;;;;;;;;;;6121585;23;20197;-90
2022/10/05 19:23:50;;;;;;;12.75;6.47;;;;;;;;;;6122733;23;20169;-90
2022/10/05 19:27:07;;;;;;;16.42;7.10;;;;;;;;;;6118695;23;20570;-91
2022/10/05 19:30:19;;;;;;;12.82;6.35;;;;;;;;;;6120890;23;20173;-90
2022/10/05 19:33:31;;;;;;;19.83;7.78;;;;;;;;;;6122274;23;20290;-91
2022/10/05 19:36:44;;;;;;;16.45;6.88;;;;;;;;;;6119766;23;20157;-93
2022/10/05 19:39:53;;;;;;;12.20;7.20;;;;;;;;;;6120199;23;20275;-91
2022/10/05 19:43:10;;;;;;;20.50;6.78;;;;;;;;;;6122784;23;20221;-91
2022/10/05 19:46:26;;;;;;;15.98;6.50;;;;;;;;;;6120565;23;20236;-93
2022/10/05 19:49:51;;;;;;;20.95;7.32;;;;;;;;;;6120292;23;20253;-91
2022/10/05 19:53:07;;;;;;;17.30;6.65;;;;;;;;;;6118313;23;20169;-92
2022/10/05 19:56:19;;;;;;;14.25;6.25;;;;;;;;;;6120842;23;20237;-93
2022/10/05 19:59:30;;;;;;;17.25;6.25;;;;;;;;;;6121044;23;20204;-93
2022/10/05 20:02:37;;;;;;;14.32;6.10;;;;;;;;;;6119326;23;20177;-93
2022/10/05 20:05:42;;;;;;;9.48;5.35;;;;;;;;;;6118635;23;20172;-91
2022/10/05 20:08:48;;;;;;;10.63;6.00;;;;;;;;;;6120294;23;20196;-91
2022/10/05 20:11:55;;;;;;;14.00;5.80;;;;;;;;;;6119639;23;20173;-91
2022/10/05 20:22:29;;;;;;;17.50;6.72;;;;;;;;;;6120136;23;20202;-93
2022/10/05 20:25:39;;;;;;;13.80;5.30;;;;;;;;;;6118544;23;20173;-92
2022/10/05 20:28:45;;;;;;;15.45;5.70;;;;;;;;;;6122367;23;20188;-93
2022/10/05 20:31:50;;;;;;;15.23;5.38;;;;;;;;;;6118571;23;20182;-92
2022/10/05 20:35:00;;;;;;;12.60;5.75;;;;;;;;;;6117844;23;20193;-91
2022/10/05 20:38:05;;;;;;;15.50;5.50;;;;;;;;;;6118397;23;20653;-93
2022/10/05 20:41:10;;;;;;;16.30;5.55;;;;;;;;;;6118009;23;20177;-92
2022/10/05 20:44:15;;;;;;;16.30;5.38;;;;;;;;;;6117114;23;20254;-90
2022/10/05 20:47:21;;;;;;;16.63;6.57;;;;;;;;;;6118390;23;20181;-92
2022/10/05 20:50:31;;;;;;;10.45;5.72;;;;;;;;;;6117168;23;20216;-90
2022/10/05 20:53:36;;;;;;;16.00;7.20;;;;;;;;;;6118974;23;20164;-93
2022/10/05 20:56:41;;;;;;;12.43;5.18;;;;;;;;;;6118397;23;20173;-92
2022/10/05 20:59:47;;;;;;;19.15;6.93;;;;;;;;;;6116635;23;20320;-91
2022/10/05 21:02:52;;;;;;;13.52;6.35;;;;;;;;;;6119132;23;20177;-91
2022/10/05 21:05:59;;;;;;;21.35;6.30;;;;;;;;;;6118903;23;20173;-93
2022/10/05 21:09:10;;;;;;;18.02;5.68;;;;;;;;;;6119174;23;20192;-92
2022/10/05 21:12:17;;;;;;;14.40;5.88;;;;;;;;;;6117565;23;20184;-93
2022/10/05 21:15:22;;;;;;;24.35;10.48;;;;;;;;;;6118809;23;20176;-92
2022/10/05 21:18:28;;;;;;;18.52;6.10;;;;;;;;;;6120885;23;20161;-91
2022/10/05 21:21:34;;;;;;;18.92;5.63;;;;;;;;;;6120197;23;20185;-93
2022/10/05 21:24:41;;;;;;;13.50;6.88;;;;;;;;;;6120356;23;20184;-91
2022/10/05 21:27:47;;;;;;;14.75;6.00;;;;;;;;;;6121467;23;20195;-92
2022/10/05 21:30:53;;;;;;;14.20;5.80;;;;;;;;;;6120591;23;20169;-92
2022/10/05 21:33:58;;;;;;;14.45;5.72;;;;;;;;;;6121552;23;20177;-92
2022/10/05 21:37:05;;;;;;;21.40;5.22;;;;;;;;;;6119799;23;20173;-91
2022/10/05 21:40:11;;;;;;;16.92;6.75;;;;;;;;;;6118013;23;20221;-92
2022/10/05 21:43:16;;;;;;;15.30;6.38;;;;;;;;;;6119716;23;20158;-93
2022/10/05 21:46:24;;;;;;;14.57;6.28;;;;;;;;;;6118666;23;20181;-93
2022/10/05 21:49:30;;;;;;;20.42;6.72;;;;;;;;;;6117792;23;20200;-89
2022/10/05 21:52:36;;;;;;;17.92;7.38;;;;;;;;;;6117719;23;20169;-93
2022/10/05 21:55:43;;;;;;;13.70;5.82;;;;;;;;;;6118049;23;20487;-93
2022/10/05 21:58:48;;;;;;;13.68;5.90;;;;;;;;;;6118137;23;20173;-91
2022/10/05 22:01:57;;;;;;;12.00;5.18;;;;;;;;;;6117378;23;20165;-92
2022/10/05 22:05:03;;;;;;;14.00;4.47;;;;;;;;;;6117046;23;20181;-89
2022/10/05 22:08:23;;;;;;;14.20;4.72;;;;;;;;;;6117883;23;20573;-92
2022/10/05 22:11:28;;;;;;;13.60;5.25;;;;;;;;;;6121046;23;20344;-92
2022/10/05 22:17:20;;;;;;;11.30;4.72;;;;;;;;;;6106980;23;20206;-89
2022/10/05 22:20:26;;;;;;;9.43;4.60;;;;;;;;;;6106886;23;20173;-89
2022/10/05 22:23:34;;;;;;;20.90;5.20;;;;;;;;;;6107775;23;20166;-90
2022/10/05 22:26:40;;;;;;;22.85;6.15;;;;;;;;;;6109943;23;20227;-88
2022/10/05 22:29:45;;;;;;;19.38;5.85;;;;;;;;;;6108493;23;20213;-90
2022/10/05 22:32:50;;;;;;;14.38;5.68;;;;;;;;;;6108855;23;20226;-88
2022/10/05 22:35:59;;;;;;;11.90;5.25;;;;;;;;;;6108263;23;20516;-88
2022/10/05 22:39:05;;;;;;;9.50;5.20;;;;;;;;;;6107114;23;20181;-89
2022/10/05 22:42:13;;;;;;;17.60;5.40;;;;;;;;;;6108341;23;20242;-90
2022/10/05 22:45:18;;;;;;;13.57;6.00;;;;;;;;;;6107728;23;20174;-89
2022/10/05 22:48:23;;;;;;;11.88;5.07;;;;;;;;;;6106812;23;20172;-89
2022/10/05 22:51:28;;;;;;;15.32;5.63;;;;;;;;;;6107429;23;20169;-90
2022/10/05 22:54:38;;;;;;;11.90;5.78;;;;;;;;;;6107253;23;20245;-91
2022/10/05 22:57:44;;;;;;;17.00;4.78;;;;;;;;;;6109368;23;20169;-91
2022/10/05 23:00:49;;;;;;;12.80;4.90;;;;;;;;;;6108455;23;20169;-90
2022/10/05 23:03:56;;;;;;;9.93;5.50;;;;;;;;;;6107517;23;20599;-90
2022/10/05 23:07:00;;;;;;;13.65;5.68;;;;;;;;;;6108957;23;20166;-89
2022/10/05 23:10:09;;;;;;;10.48;5.15;;;;;;;;;;6107820;23;20267;-89
2022/10/05 23:13:14;;;;;;;12.38;5.35;;;;;;;;;;6106766;23;20170;-90
2022/10/05 23:16:19;;;;;;;9.40;4.65;;;;;;;;;;6108642;23;20180;-90
2022/10/05 23:19:24;;;;;;;17.33;5.55;;;;;;;;;;6107659;23;20498;-90
2022/10/05 23:22:30;;;;;;;12.90;4.70;;;;;;;;;;6109403;23;20232;-89
2022/10/05 23:25:36;;;;;;;10.35;5.55;;;;;;;;;;6106524;23;20174;-90
2022/10/05 23:28:45;;;;;;;11.23;4.93;;;;;;;;;;6108375;23;20185;-92
2022/10/05 23:31:54;;;;;;;12.52;4.50;;;;;;;;;;6108074;23;20177;-90
2022/10/05 23:34:59;;;;;;;8.77;4.30;;;;;;;;;;6109017;23;20230;-91
2022/10/05 23:38:05;;;;;;;14.48;4.80;;;;;;;;;;6108499;23;20170;-90
2022/10/05 23:41:12;;;;;;;14.18;4.40;;;;;;;;;;6106584;23;20302;-89
2022/10/05 23:44:17;;;;;;;10.95;4.50;;;;;;;;;;6105808;23;20209;-91
2022/10/05 23:47:22;;;;;;;16.92;5.35;;;;;;;;;;6106828;23;20181;-91
2022/10/05 23:50:30;;;;;;;14.40;5.82;;;;;;;;;;6107206;23;20333;-90
2022/10/05 23:53:35;;;;;;;19.58;6.32;;;;;;;;;;6106775;23;20173;-92
2022/10/05 23:56:41;;;;;;;16.58;6.22;;;;;;;;;;6106957;23;20211;-90
2022/10/05 23:59:49;;;;;;;16.90;5.80;;;;;;;;;;6107200;23;20177;-90
